sensor_id;sensor_type;location;lat;lon;timestamp;temperature;humidity
13591;DHT22;6866;50.778;7.206;2022-07-04T00:00:29;19.30;55.70
13591;DHT22;6866;50.778;7.206;2022-07-04T00:02:55;19.30;55.70
13591;DHT22;6866;50.778;7.206;2022-07-04T00:05:20;19.20;55.60
13591;DHT22;6866;50.778;7.206;2022-07-04T00:07:48;19.20;55.60
13591;DHT22;6866;50.778;7.206;2022-07-04T00:10:16;19.20;56.10
13591;DHT22;6866;50.778;7.206;2022-07-04T00:12:43;19.10;56.30
13591;DHT22;6866;50.778;7.206;2022-07-04T00:15:09;19.10;56.20
13591;DHT22;6866;50.778;7.206;2022-07-04T00:17:35;19.00;55.90
13591;DHT22;6866;50.778;7.206;2022-07-04T00:20:01;19.00;56.40
13591;DHT22;6866;50.778;7.206;2022-07-04T00:22:27;19.00;56.10
13591;DHT22;6866;50.778;7.206;2022-07-04T00:24:52;18.90;56.50
13591;DHT22;6866;50.778;7.206;2022-07-04T00:27:18;18.90;57.10
13591;DHT22;6866;50.778;7.206;2022-07-04T00:29:43;18.80;57.40
13591;DHT22;6866;50.778;7.206;2022-07-04T00:32:09;18.80;57.50
13591;DHT22;6866;50.778;7.206;2022-07-04T00:34:35;18.70;57.80
13591;DHT22;6866;50.778;7.206;2022-07-04T00:37:01;18.60;58.20
13591;DHT22;6866;50.778;7.206;2022-07-04T00:39:27;18.60;58.50
13591;DHT22;6866;50.778;7.206;2022-07-04T00:41:52;18.50;58.70
13591;DHT22;6866;50.778;7.206;2022-07-04T00:44:18;18.30;59.60
13591;DHT22;6866;50.778;7.206;2022-07-04T00:46:45;18.40;59.50
13591;DHT22;6866;50.778;7.206;2022-07-04T00:49:11;18.40;59.90
13591;DHT22;6866;50.778;7.206;2022-07-04T00:51:39;18.40;59.60
13591;DHT22;6866;50.778;7.206;2022-07-04T00:54:06;18.30;60.20
13591;DHT22;6866;50.778;7.206;2022-07-04T00:56:32;18.30;60.50
13591;DHT22;6866;50.778;7.206;2022-07-04T00:59:00;18.20;60.70
13591;DHT22;6866;50.778;7.206;2022-07-04T01:04:02;18.10;61.10
13591;DHT22;6866;50.778;7.206;2022-07-04T01:06:28;18.10;61.30
13591;DHT22;6866;50.778;7.206;2022-07-04T01:08:55;18.00;61.60
13591;DHT22;6866;50.778;7.206;2022-07-04T01:11:21;18.00;61.70
13591;DHT22;6866;50.778;7.206;2022-07-04T01:13:46;18.00;61.70
13591;DHT22;6866;50.778;7.206;2022-07-04T01:16:13;18.00;61.40
13591;DHT22;6866;50.778;7.206;2022-07-04T01:18:40;17.90;61.50
13591;DHT22;6866;50.778;7.206;2022-07-04T01:21:06;18.00;61.90
13591;DHT22;6866;50.778;7.206;2022-07-04T01:23:32;18.00;61.90
13591;DHT22;6866;50.778;7.206;2022-07-04T01:26:02;17.90;62.30
13591;DHT22;6866;50.778;7.206;2022-07-04T01:28:27;17.80;62.30
13591;DHT22;6866;50.778;7.206;2022-07-04T01:30:53;17.70;62.60
13591;DHT22;6866;50.778;7.206;2022-07-04T01:33:18;17.60;62.90
13591;DHT22;6866;50.778;7.206;2022-07-04T01:35:45;17.60;63.00
13591;DHT22;6866;50.778;7.206;2022-07-04T01:38:10;17.60;63.40
13591;DHT22;6866;50.778;7.206;2022-07-04T01:40:36;17.60;63.50
13591;DHT22;6866;50.778;7.206;2022-07-04T01:43:02;17.50;63.40
13591;DHT22;6866;50.778;7.206;2022-07-04T01:45:28;17.50;63.80
13591;DHT22;6866;50.778;7.206;2022-07-04T01:47:53;17.50;63.70
13591;DHT22;6866;50.778;7.206;2022-07-04T01:50:20;17.40;63.70
13591;DHT22;6866;50.778;7.206;2022-07-04T01:52:45;17.40;64.00
13591;DHT22;6866;50.778;7.206;2022-07-04T01:55:12;17.50;63.70
13591;DHT22;6866;50.778;7.206;2022-07-04T01:57:37;17.40;63.70
13591;DHT22;6866;50.778;7.206;2022-07-04T02:00:06;17.30;64.10
13591;DHT22;6866;50.778;7.206;2022-07-04T02:02:50;17.30;64.20
13591;DHT22;6866;50.778;7.206;2022-07-04T02:05:16;17.20;64.40
13591;DHT22;6866;50.778;7.206;2022-07-04T02:07:42;17.20;64.60
13591;DHT22;6866;50.778;7.206;2022-07-04T02:10:07;17.30;64.50
13591;DHT22;6866;50.778;7.206;2022-07-04T02:12:33;17.30;64.30
13591;DHT22;6866;50.778;7.206;2022-07-04T02:15:17;17.40;64.10
13591;DHT22;6866;50.778;7.206;2022-07-04T02:17:43;17.30;64.00
13591;DHT22;6866;50.778;7.206;2022-07-04T02:20:09;17.30;64.10
13591;DHT22;6866;50.778;7.206;2022-07-04T02:22:34;17.20;64.00
13591;DHT22;6866;50.778;7.206;2022-07-04T02:25:00;17.10;64.50
13591;DHT22;6866;50.778;7.206;2022-07-04T02:27:25;17.00;64.90
13591;DHT22;6866;50.778;7.206;2022-07-04T02:29:51;16.80;65.80
13591;DHT22;6866;50.778;7.206;2022-07-04T02:32:16;16.80;66.00
13591;DHT22;6866;50.778;7.206;2022-07-04T02:34:42;16.70;66.30
13591;DHT22;6866;50.778;7.206;2022-07-04T02:37:07;16.50;66.90
13591;DHT22;6866;50.778;7.206;2022-07-04T02:39:33;16.50;67.20
13591;DHT22;6866;50.778;7.206;2022-07-04T02:41:58;16.50;66.80
13591;DHT22;6866;50.778;7.206;2022-07-04T02:44:24;16.50;67.30
13591;DHT22;6866;50.778;7.206;2022-07-04T02:46:50;16.30;67.70
13591;DHT22;6866;50.778;7.206;2022-07-04T02:49:15;16.30;68.00
13591;DHT22;6866;50.778;7.206;2022-07-04T02:51:41;16.40;68.20
13591;DHT22;6866;50.778;7.206;2022-07-04T02:54:07;16.30;68.00
13591;DHT22;6866;50.778;7.206;2022-07-04T02:56:33;16.20;68.20
13591;DHT22;6866;50.778;7.206;2022-07-04T02:58:58;16.20;68.60
13591;DHT22;6866;50.778;7.206;2022-07-04T03:01:24;16.20;68.70
13591;DHT22;6866;50.778;7.206;2022-07-04T03:03:49;16.10;68.50
13591;DHT22;6866;50.778;7.206;2022-07-04T03:06:15;16.00;68.90
13591;DHT22;6866;50.778;7.206;2022-07-04T03:08:41;16.00;69.20
13591;DHT22;6866;50.778;7.206;2022-07-04T03:11:06;16.10;68.90
13591;DHT22;6866;50.778;7.206;2022-07-04T03:13:32;16.00;69.00
13591;DHT22;6866;50.778;7.206;2022-07-04T03:15:58;16.00;69.10
13591;DHT22;6866;50.778;7.206;2022-07-04T03:18:24;16.00;69.00
13591;DHT22;6866;50.778;7.206;2022-07-04T03:20:50;15.90;69.40
13591;DHT22;6866;50.778;7.206;2022-07-04T03:23:15;15.90;69.60
13591;DHT22;6866;50.778;7.206;2022-07-04T03:25:41;15.90;69.70
13591;DHT22;6866;50.778;7.206;2022-07-04T03:28:08;15.80;69.60
13591;DHT22;6866;50.778;7.206;2022-07-04T03:30:34;15.80;70.00
13591;DHT22;6866;50.778;7.206;2022-07-04T03:32:59;15.60;70.50
13591;DHT22;6866;50.778;7.206;2022-07-04T03:35:25;15.70;70.60
13591;DHT22;6866;50.778;7.206;2022-07-04T03:37:51;15.70;70.90
13591;DHT22;6866;50.778;7.206;2022-07-04T03:40:18;15.70;70.60
13591;DHT22;6866;50.778;7.206;2022-07-04T03:42:44;15.70;70.50
13591;DHT22;6866;50.778;7.206;2022-07-04T03:45:10;15.70;70.90
13591;DHT22;6866;50.778;7.206;2022-07-04T03:47:36;15.70;70.60
13591;DHT22;6866;50.778;7.206;2022-07-04T03:50:01;15.60;70.70
13591;DHT22;6866;50.778;7.206;2022-07-04T03:52:27;15.60;70.90
13591;DHT22;6866;50.778;7.206;2022-07-04T03:54:53;15.60;71.00
13591;DHT22;6866;50.778;7.206;2022-07-04T03:57:18;15.70;70.80
13591;DHT22;6866;50.778;7.206;2022-07-04T03:59:44;15.80;70.70
13591;DHT22;6866;50.778;7.206;2022-07-04T04:02:10;15.80;70.30
13591;DHT22;6866;50.778;7.206;2022-07-04T04:04:35;15.80;70.20
13591;DHT22;6866;50.778;7.206;2022-07-04T04:07:19;15.80;70.20
13591;DHT22;6866;50.778;7.206;2022-07-04T04:09:45;15.80;70.10
13591;DHT22;6866;50.778;7.206;2022-07-04T04:12:10;15.90;69.80
13591;DHT22;6866;50.778;7.206;2022-07-04T04:14:36;15.90;69.80
13591;DHT22;6866;50.778;7.206;2022-07-04T04:17:01;15.90;70.10
13591;DHT22;6866;50.778;7.206;2022-07-04T04:19:27;16.00;69.90
13591;DHT22;6866;50.778;7.206;2022-07-04T04:21:53;16.00;69.70
13591;DHT22;6866;50.778;7.206;2022-07-04T04:24:18;16.00;69.90
13591;DHT22;6866;50.778;7.206;2022-07-04T04:26:44;16.00;69.60
13591;DHT22;6866;50.778;7.206;2022-07-04T04:29:09;16.00;69.60
13591;DHT22;6866;50.778;7.206;2022-07-04T04:31:35;16.10;69.80
13591;DHT22;6866;50.778;7.206;2022-07-04T04:34:01;16.00;69.90
13591;DHT22;6866;50.778;7.206;2022-07-04T04:36:26;16.10;69.80
13591;DHT22;6866;50.778;7.206;2022-07-04T04:38:52;16.10;69.70
13591;DHT22;6866;50.778;7.206;2022-07-04T04:41:17;16.20;69.80
13591;DHT22;6866;50.778;7.206;2022-07-04T04:43:43;16.20;68.50
13591;DHT22;6866;50.778;7.206;2022-07-04T04:46:09;16.30;69.10
13591;DHT22;6866;50.778;7.206;2022-07-04T04:48:35;16.30;69.50
13591;DHT22;6866;50.778;7.206;2022-07-04T04:51:01;16.30;69.70
13591;DHT22;6866;50.778;7.206;2022-07-04T04:53:26;16.40;70.20
13591;DHT22;6866;50.778;7.206;2022-07-04T04:55:52;16.50;69.20
13591;DHT22;6866;50.778;7.206;2022-07-04T04:58:19;16.40;69.80
13591;DHT22;6866;50.778;7.206;2022-07-04T05:00:45;16.40;68.20
13591;DHT22;6866;50.778;7.206;2022-07-04T05:03:11;16.40;68.00
13591;DHT22;6866;50.778;7.206;2022-07-04T05:05:37;16.50;66.90
13591;DHT22;6866;50.778;7.206;2022-07-04T05:08:03;16.70;67.50
13591;DHT22;6866;50.778;7.206;2022-07-04T05:10:28;16.70;66.20
13591;DHT22;6866;50.778;7.206;2022-07-04T05:12:54;16.80;65.70
13591;DHT22;6866;50.778;7.206;2022-07-04T05:15:21;17.60;64.00
13591;DHT22;6866;50.778;7.206;2022-07-04T05:17:46;17.50;63.30
13591;DHT22;6866;50.778;7.206;2022-07-04T05:20:12;17.40;63.60
13591;DHT22;6866;50.778;7.206;2022-07-04T05:22:38;20.00;59.40
13591;DHT22;6866;50.778;7.206;2022-07-04T05:25:04;22.90;51.90
13591;DHT22;6866;50.778;7.206;2022-07-04T05:27:29;23.00;48.20
13591;DHT22;6866;50.778;7.206;2022-07-04T05:29:56;22.20;49.10
13591;DHT22;6866;50.778;7.206;2022-07-04T05:32:22;23.70;46.40
13591;DHT22;6866;50.778;7.206;2022-07-04T05:34:47;22.50;48.10
13591;DHT22;6866;50.778;7.206;2022-07-04T05:37:13;21.40;49.50
13591;DHT22;6866;50.778;7.206;2022-07-04T05:39:39;21.10;51.30
13591;DHT22;6866;50.778;7.206;2022-07-04T05:42:04;24.00;46.50
13591;DHT22;6866;50.778;7.206;2022-07-04T05:44:30;25.80;41.00
13591;DHT22;6866;50.778;7.206;2022-07-04T05:46:55;25.20;40.90
13591;DHT22;6866;50.778;7.206;2022-07-04T05:49:21;27.20;39.00
13591;DHT22;6866;50.778;7.206;2022-07-04T05:51:46;27.70;36.50
13591;DHT22;6866;50.778;7.206;2022-07-04T05:54:12;28.60;35.90
13591;DHT22;6866;50.778;7.206;2022-07-04T05:56:37;29.20;33.70
13591;DHT22;6866;50.778;7.206;2022-07-04T05:59:05;29.40;33.20
13591;DHT22;6866;50.778;7.206;2022-07-04T06:01:30;29.70;32.50
13591;DHT22;6866;50.778;7.206;2022-07-04T06:03:56;29.70;32.20
13591;DHT22;6866;50.778;7.206;2022-07-04T06:06:21;29.70;32.50
13591;DHT22;6866;50.778;7.206;2022-07-04T06:08:47;30.20;31.40
13591;DHT22;6866;50.778;7.206;2022-07-04T06:11:12;30.10;31.00
13591;DHT22;6866;50.778;7.206;2022-07-04T06:13:39;28.70;31.10
13591;DHT22;6866;50.778;7.206;2022-07-04T06:16:05;29.90;32.30
13591;DHT22;6866;50.778;7.206;2022-07-04T06:18:30;30.70;31.20
13591;DHT22;6866;50.778;7.206;2022-07-04T06:20:56;31.20;30.50
13591;DHT22;6866;50.778;7.206;2022-07-04T06:23:21;31.60;29.60
13591;DHT22;6866;50.778;7.206;2022-07-04T06:25:47;31.20;29.90
13591;DHT22;6866;50.778;7.206;2022-07-04T06:28:12;28.90;30.90
13591;DHT22;6866;50.778;7.206;2022-07-04T06:30:38;30.50;31.60
13591;DHT22;6866;50.778;7.206;2022-07-04T06:33:03;30.80;30.00
13591;DHT22;6866;50.778;7.206;2022-07-04T06:35:30;31.60;29.60
13591;DHT22;6866;50.778;7.206;2022-07-04T06:38:16;31.70;29.40
13591;DHT22;6866;50.778;7.206;2022-07-04T06:40:42;32.30;28.30
13591;DHT22;6866;50.778;7.206;2022-07-04T06:43:08;32.40;28.60
13591;DHT22;6866;50.778;7.206;2022-07-04T06:45:34;32.70;28.40
13591;DHT22;6866;50.778;7.206;2022-07-04T06:48:00;32.70;28.30
13591;DHT22;6866;50.778;7.206;2022-07-04T06:50:26;32.50;27.60
13591;DHT22;6866;50.778;7.206;2022-07-04T06:52:52;32.60;27.70
13591;DHT22;6866;50.778;7.206;2022-07-04T06:55:18;32.70;27.40
13591;DHT22;6866;50.778;7.206;2022-07-04T06:57:43;32.20;27.50
13591;DHT22;6866;50.778;7.206;2022-07-04T07:00:09;31.80;27.80
13591;DHT22;6866;50.778;7.206;2022-07-04T07:02:36;31.60;28.20
13591;DHT22;6866;50.778;7.206;2022-07-04T07:05:03;32.00;27.70
13591;DHT22;6866;50.778;7.206;2022-07-04T07:07:28;32.20;27.70
13591;DHT22;6866;50.778;7.206;2022-07-04T07:09:55;32.00;27.70
13591;DHT22;6866;50.778;7.206;2022-07-04T07:12:21;33.00;27.10
13591;DHT22;6866;50.778;7.206;2022-07-04T07:14:48;32.50;26.40
13591;DHT22;6866;50.778;7.206;2022-07-04T07:17:14;31.70;27.00
13591;DHT22;6866;50.778;7.206;2022-07-04T07:19:41;31.60;27.60
13591;DHT22;6866;50.778;7.206;2022-07-04T07:22:09;31.80;26.30
13591;DHT22;6866;50.778;7.206;2022-07-04T07:24:34;31.70;25.30
13591;DHT22;6866;50.778;7.206;2022-07-04T07:27:00;32.00;24.60
13591;DHT22;6866;50.778;7.206;2022-07-04T07:29:25;32.00;24.50
13591;DHT22;6866;50.778;7.206;2022-07-04T07:31:51;32.10;25.10
13591;DHT22;6866;50.778;7.206;2022-07-04T07:34:17;32.00;24.00
13591;DHT22;6866;50.778;7.206;2022-07-04T07:36:42;30.90;25.40
13591;DHT22;6866;50.778;7.206;2022-07-04T07:39:08;31.20;25.60
13591;DHT22;6866;50.778;7.206;2022-07-04T07:41:34;32.00;24.90
13591;DHT22;6866;50.778;7.206;2022-07-04T07:43:59;32.10;24.30
13591;DHT22;6866;50.778;7.206;2022-07-04T07:46:25;32.20;24.00
13591;DHT22;6866;50.778;7.206;2022-07-04T07:48:50;31.40;23.30
13591;DHT22;6866;50.778;7.206;2022-07-04T07:51:16;31.30;24.70
13591;DHT22;6866;50.778;7.206;2022-07-04T07:53:42;32.30;24.70
13591;DHT22;6866;50.778;7.206;2022-07-04T07:56:08;33.20;23.70
13591;DHT22;6866;50.778;7.206;2022-07-04T07:58:34;33.40;22.50
13591;DHT22;6866;50.778;7.206;2022-07-04T08:01:00;33.40;22.30
13591;DHT22;6866;50.778;7.206;2022-07-04T08:03:28;33.80;22.50
13591;DHT22;6866;50.778;7.206;2022-07-04T08:06:13;31.90;21.70
13591;DHT22;6866;50.778;7.206;2022-07-04T08:08:42;30.00;24.40
13591;DHT22;6866;50.778;7.206;2022-07-04T08:11:10;31.00;23.90
13591;DHT22;6866;50.778;7.206;2022-07-04T08:13:36;29.90;24.80
13591;DHT22;6866;50.778;7.206;2022-07-04T08:16:02;31.70;24.20
13591;DHT22;6866;50.778;7.206;2022-07-04T08:18:27;32.00;23.20
13591;DHT22;6866;50.778;7.206;2022-07-04T08:20:53;33.00;23.10
13591;DHT22;6866;50.778;7.206;2022-07-04T08:23:19;32.40;22.50
13591;DHT22;6866;50.778;7.206;2022-07-04T08:25:44;32.60;23.10
13591;DHT22;6866;50.778;7.206;2022-07-04T08:28:10;32.80;21.90
13591;DHT22;6866;50.778;7.206;2022-07-04T08:30:36;32.20;22.60
13591;DHT22;6866;50.778;7.206;2022-07-04T08:33:01;31.00;22.60
13591;DHT22;6866;50.778;7.206;2022-07-04T08:35:27;30.60;24.60
13591;DHT22;6866;50.778;7.206;2022-07-04T08:37:53;31.50;23.90
13591;DHT22;6866;50.778;7.206;2022-07-04T08:40:25;31.60;23.70
13591;DHT22;6866;50.778;7.206;2022-07-04T08:42:51;31.80;23.40
13591;DHT22;6866;50.778;7.206;2022-07-04T08:45:25;31.30;23.60
13591;DHT22;6866;50.778;7.206;2022-07-04T08:47:52;30.90;24.30
13591;DHT22;6866;50.778;7.206;2022-07-04T08:50:26;30.10;24.80
13591;DHT22;6866;50.778;7.206;2022-07-04T08:52:59;30.00;24.70
13591;DHT22;6866;50.778;7.206;2022-07-04T08:55:25;31.10;24.60
13591;DHT22;6866;50.778;7.206;2022-07-04T08:58:10;31.60;24.60
13591;DHT22;6866;50.778;7.206;2022-07-04T09:00:58;30.50;23.40
13591;DHT22;6866;50.778;7.206;2022-07-04T09:03:25;30.50;24.80
13591;DHT22;6866;50.778;7.206;2022-07-04T09:05:51;31.00;24.60
13591;DHT22;6866;50.778;7.206;2022-07-04T09:08:17;30.50;24.60
13591;DHT22;6866;50.778;7.206;2022-07-04T09:10:43;30.60;25.30
13591;DHT22;6866;50.778;7.206;2022-07-04T09:13:10;30.20;25.20
13591;DHT22;6866;50.778;7.206;2022-07-04T09:15:36;30.50;24.40
13591;DHT22;6866;50.778;7.206;2022-07-04T09:18:02;30.00;25.00
13591;DHT22;6866;50.778;7.206;2022-07-04T09:20:30;30.60;24.70
13591;DHT22;6866;50.778;7.206;2022-07-04T09:22:56;29.50;24.80
13591;DHT22;6866;50.778;7.206;2022-07-04T09:25:24;28.80;25.40
13591;DHT22;6866;50.778;7.206;2022-07-04T09:27:51;29.40;26.20
13591;DHT22;6866;50.778;7.206;2022-07-04T09:30:20;29.80;25.70
13591;DHT22;6866;50.778;7.206;2022-07-04T09:32:50;29.80;26.10
13591;DHT22;6866;50.778;7.206;2022-07-04T09:35:22;29.30;24.50
13591;DHT22;6866;50.778;7.206;2022-07-04T09:37:49;29.60;25.80
13591;DHT22;6866;50.778;7.206;2022-07-04T09:40:36;29.90;24.50
13591;DHT22;6866;50.778;7.206;2022-07-04T09:43:21;28.60;24.80
13591;DHT22;6866;50.778;7.206;2022-07-04T09:45:57;28.60;26.20
13591;DHT22;6866;50.778;7.206;2022-07-04T09:48:23;28.90;25.80
13591;DHT22;6866;50.778;7.206;2022-07-04T09:50:49;28.80;26.60
13591;DHT22;6866;50.778;7.206;2022-07-04T09:53:14;29.30;25.70
13591;DHT22;6866;50.778;7.206;2022-07-04T09:55:40;29.00;26.30
13591;DHT22;6866;50.778;7.206;2022-07-04T09:58:14;28.60;26.50
13591;DHT22;6866;50.778;7.206;2022-07-04T10:03:23;28.60;26.40
13591;DHT22;6866;50.778;7.206;2022-07-04T10:06:10;28.70;26.30
13591;DHT22;6866;50.778;7.206;2022-07-04T10:08:38;28.80;26.10
13591;DHT22;6866;50.778;7.206;2022-07-04T10:11:04;28.80;26.20
13591;DHT22;6866;50.778;7.206;2022-07-04T10:13:30;28.80;26.90
13591;DHT22;6866;50.778;7.206;2022-07-04T10:15:57;28.80;26.40
13591;DHT22;6866;50.778;7.206;2022-07-04T10:18:23;28.80;26.20
13591;DHT22;6866;50.778;7.206;2022-07-04T10:20:50;27.80;27.00
13591;DHT22;6866;50.778;7.206;2022-07-04T10:23:17;28.00;26.80
13591;DHT22;6866;50.778;7.206;2022-07-04T10:25:46;28.30;26.20
13591;DHT22;6866;50.778;7.206;2022-07-04T10:28:12;28.70;26.80
13591;DHT22;6866;50.778;7.206;2022-07-04T10:30:39;28.80;26.00
13591;DHT22;6866;50.778;7.206;2022-07-04T10:33:07;29.00;26.50
13591;DHT22;6866;50.778;7.206;2022-07-04T10:35:48;28.90;26.80
13591;DHT22;6866;50.778;7.206;2022-07-04T10:38:15;28.60;26.00
13591;DHT22;6866;50.778;7.206;2022-07-04T10:48:27;28.10;26.20
13591;DHT22;6866;50.778;7.206;2022-07-04T10:51:04;28.30;25.70
13591;DHT22;6866;50.778;7.206;2022-07-04T10:53:31;28.60;26.20
13591;DHT22;6866;50.778;7.206;2022-07-04T10:58:42;28.10;27.60
13591;DHT22;6866;50.778;7.206;2022-07-04T11:01:12;28.60;26.30
13591;DHT22;6866;50.778;7.206;2022-07-04T11:03:52;28.50;26.80
13591;DHT22;6866;50.778;7.206;2022-07-04T11:09:24;27.80;27.40
13591;DHT22;6866;50.778;7.206;2022-07-04T11:14:51;28.20;27.50
13591;DHT22;6866;50.778;7.206;2022-07-04T11:17:20;28.50;26.10
13591;DHT22;6866;50.778;7.206;2022-07-04T11:19:59;28.60;26.10
13591;DHT22;6866;50.778;7.206;2022-07-04T11:22:25;28.50;27.10
13591;DHT22;6866;50.778;7.206;2022-07-04T11:24:50;28.60;26.30
13591;DHT22;6866;50.778;7.206;2022-07-04T11:27:17;28.10;26.50
13591;DHT22;6866;50.778;7.206;2022-07-04T11:29:50;28.30;26.70
13591;DHT22;6866;50.778;7.206;2022-07-04T11:32:16;28.70;27.90
13591;DHT22;6866;50.778;7.206;2022-07-04T11:34:42;28.20;27.40
13591;DHT22;6866;50.778;7.206;2022-07-04T11:37:07;28.40;27.70
13591;DHT22;6866;50.778;7.206;2022-07-04T11:39:33;28.40;27.10
13591;DHT22;6866;50.778;7.206;2022-07-04T11:41:58;28.40;27.80
13591;DHT22;6866;50.778;7.206;2022-07-04T11:44:43;28.60;26.70
13591;DHT22;6866;50.778;7.206;2022-07-04T11:47:35;28.60;27.00
13591;DHT22;6866;50.778;7.206;2022-07-04T11:50:03;28.30;27.20
13591;DHT22;6866;50.778;7.206;2022-07-04T11:55:04;28.50;26.60
13591;DHT22;6866;50.778;7.206;2022-07-04T11:57:34;28.70;26.10
13591;DHT22;6866;50.778;7.206;2022-07-04T12:00:03;28.70;26.40
13591;DHT22;6866;50.778;7.206;2022-07-04T12:02:31;28.80;25.90
13591;DHT22;6866;50.778;7.206;2022-07-04T12:04:58;28.10;26.80
13591;DHT22;6866;50.778;7.206;2022-07-04T12:07:28;28.40;27.10
13591;DHT22;6866;50.778;7.206;2022-07-04T12:09:55;28.40;26.80
13591;DHT22;6866;50.778;7.206;2022-07-04T12:12:21;28.40;26.90
13591;DHT22;6866;50.778;7.206;2022-07-04T12:15:02;28.60;26.90
13591;DHT22;6866;50.778;7.206;2022-07-04T12:17:36;28.50;27.20
13591;DHT22;6866;50.778;7.206;2022-07-04T12:20:10;28.50;26.70
13591;DHT22;6866;50.778;7.206;2022-07-04T12:22:43;28.90;26.90
13591;DHT22;6866;50.778;7.206;2022-07-04T12:25:28;29.00;26.50
13591;DHT22;6866;50.778;7.206;2022-07-04T12:28:00;28.20;27.30
13591;DHT22;6866;50.778;7.206;2022-07-04T12:30:27;27.50;27.40
13591;DHT22;6866;50.778;7.206;2022-07-04T12:32:57;27.60;27.80
13591;DHT22;6866;50.778;7.206;2022-07-04T12:35:43;28.20;26.90
13591;DHT22;6866;50.778;7.206;2022-07-04T12:43:26;29.00;26.00
13591;DHT22;6866;50.778;7.206;2022-07-04T12:45:53;29.20;25.60
13591;DHT22;6866;50.778;7.206;2022-07-04T12:48:29;29.20;25.10
13591;DHT22;6866;50.778;7.206;2022-07-04T12:51:13;28.90;24.70
13591;DHT22;6866;50.778;7.206;2022-07-04T12:53:40;29.10;25.70
13591;DHT22;6866;50.778;7.206;2022-07-04T12:56:07;28.90;25.40
13591;DHT22;6866;50.778;7.206;2022-07-04T12:58:33;28.60;25.70
13591;DHT22;6866;50.778;7.206;2022-07-04T13:00:59;28.40;25.60
13591;DHT22;6866;50.778;7.206;2022-07-04T13:03:25;28.80;25.80
13591;DHT22;6866;50.778;7.206;2022-07-04T13:05:50;28.80;25.80
13591;DHT22;6866;50.778;7.206;2022-07-04T13:08:16;29.00;26.40
13591;DHT22;6866;50.778;7.206;2022-07-04T13:10:42;29.30;26.50
13591;DHT22;6866;50.778;7.206;2022-07-04T13:13:07;29.20;25.90
13591;DHT22;6866;50.778;7.206;2022-07-04T13:15:33;28.80;25.80
13591;DHT22;6866;50.778;7.206;2022-07-04T13:17:59;28.80;26.00
13591;DHT22;6866;50.778;7.206;2022-07-04T13:20:25;28.90;26.00
13591;DHT22;6866;50.778;7.206;2022-07-04T13:22:51;28.50;25.90
13591;DHT22;6866;50.778;7.206;2022-07-04T13:25:18;28.40;26.80
13591;DHT22;6866;50.778;7.206;2022-07-04T13:27:43;28.70;26.80
13591;DHT22;6866;50.778;7.206;2022-07-04T13:30:10;29.00;26.40
13591;DHT22;6866;50.778;7.206;2022-07-04T13:32:36;28.50;25.90
13591;DHT22;6866;50.778;7.206;2022-07-04T13:35:02;28.40;26.30
13591;DHT22;6866;50.778;7.206;2022-07-04T13:37:28;28.70;26.70
13591;DHT22;6866;50.778;7.206;2022-07-04T13:39:54;29.00;26.70
13591;DHT22;6866;50.778;7.206;2022-07-04T13:42:20;29.20;26.00
13591;DHT22;6866;50.778;7.206;2022-07-04T13:45:06;29.20;26.20
13591;DHT22;6866;50.778;7.206;2022-07-04T13:47:31;29.10;26.80
13591;DHT22;6866;50.778;7.206;2022-07-04T13:49:57;29.00;25.70
13591;DHT22;6866;50.778;7.206;2022-07-04T13:52:22;29.20;25.80
13591;DHT22;6866;50.778;7.206;2022-07-04T13:54:48;29.10;26.70
13591;DHT22;6866;50.778;7.206;2022-07-04T13:57:14;28.60;27.40
13591;DHT22;6866;50.778;7.206;2022-07-04T13:59:39;28.20;27.50
13591;DHT22;6866;50.778;7.206;2022-07-04T14:02:06;27.60;27.30
13591;DHT22;6866;50.778;7.206;2022-07-04T14:04:31;27.50;28.10
13591;DHT22;6866;50.778;7.206;2022-07-04T14:06:57;27.60;28.00
13591;DHT22;6866;50.778;7.206;2022-07-04T14:09:23;27.60;27.70
13591;DHT22;6866;50.778;7.206;2022-07-04T14:11:48;27.80;27.70
13591;DHT22;6866;50.778;7.206;2022-07-04T14:14:14;27.50;27.50
13591;DHT22;6866;50.778;7.206;2022-07-04T14:16:40;27.30;27.70
13591;DHT22;6866;50.778;7.206;2022-07-04T14:19:05;27.30;27.80
13591;DHT22;6866;50.778;7.206;2022-07-04T14:21:31;27.20;28.10
13591;DHT22;6866;50.778;7.206;2022-07-04T14:23:56;27.50;27.70
13591;DHT22;6866;50.778;7.206;2022-07-04T14:26:22;27.90;27.40
13591;DHT22;6866;50.778;7.206;2022-07-04T14:28:50;28.40;27.40
13591;DHT22;6866;50.778;7.206;2022-07-04T14:31:16;28.40;27.00
13591;DHT22;6866;50.778;7.206;2022-07-04T14:33:41;28.60;26.80
13591;DHT22;6866;50.778;7.206;2022-07-04T14:36:07;28.60;26.40
13591;DHT22;6866;50.778;7.206;2022-07-04T14:38:34;28.70;26.00
13591;DHT22;6866;50.778;7.206;2022-07-04T14:41:00;28.40;26.50
13591;DHT22;6866;50.778;7.206;2022-07-04T14:43:44;28.20;27.90
13591;DHT22;6866;50.778;7.206;2022-07-04T14:46:10;28.30;26.60
13591;DHT22;6866;50.778;7.206;2022-07-04T14:48:37;28.00;26.30
13591;DHT22;6866;50.778;7.206;2022-07-04T14:51:03;28.30;27.50
13591;DHT22;6866;50.778;7.206;2022-07-04T14:53:29;28.10;27.40
13591;DHT22;6866;50.778;7.206;2022-07-04T14:55:54;27.80;27.20
13591;DHT22;6866;50.778;7.206;2022-07-04T14:58:20;27.70;27.30
13591;DHT22;6866;50.778;7.206;2022-07-04T15:00:46;27.90;27.70
13591;DHT22;6866;50.778;7.206;2022-07-04T15:03:11;27.80;27.40
13591;DHT22;6866;50.778;7.206;2022-07-04T15:05:37;27.40;28.20
13591;DHT22;6866;50.778;7.206;2022-07-04T15:08:02;27.20;28.60
13591;DHT22;6866;50.778;7.206;2022-07-04T15:10:28;27.60;28.30
13591;DHT22;6866;50.778;7.206;2022-07-04T15:12:54;28.00;27.30
13591;DHT22;6866;50.778;7.206;2022-07-04T15:15:19;28.20;26.90
13591;DHT22;6866;50.778;7.206;2022-07-04T15:17:48;28.10;27.50
13591;DHT22;6866;50.778;7.206;2022-07-04T15:20:13;27.90;27.80
13591;DHT22;6866;50.778;7.206;2022-07-04T15:22:58;27.90;27.60
13591;DHT22;6866;50.778;7.206;2022-07-04T15:25:42;27.90;27.90
13591;DHT22;6866;50.778;7.206;2022-07-04T15:28:08;27.50;27.90
13591;DHT22;6866;50.778;7.206;2022-07-04T15:30:33;27.30;28.20
13591;DHT22;6866;50.778;7.206;2022-07-04T15:32:59;27.50;28.70
13591;DHT22;6866;50.778;7.206;2022-07-04T15:35:24;27.30;27.20
13591;DHT22;6866;50.778;7.206;2022-07-04T15:37:50;26.90;27.30
13591;DHT22;6866;50.778;7.206;2022-07-04T15:40:17;26.80;28.30
13591;DHT22;6866;50.778;7.206;2022-07-04T15:42:42;26.70;28.10
13591;DHT22;6866;50.778;7.206;2022-07-04T15:45:08;26.50;27.80
13591;DHT22;6866;50.778;7.206;2022-07-04T15:47:34;26.50;28.40
13591;DHT22;6866;50.778;7.206;2022-07-04T15:50:00;26.80;28.50
13591;DHT22;6866;50.778;7.206;2022-07-04T15:52:26;27.00;28.40
13591;DHT22;6866;50.778;7.206;2022-07-04T15:54:53;27.10;28.40
13591;DHT22;6866;50.778;7.206;2022-07-04T15:57:19;26.90;29.10
13591;DHT22;6866;50.778;7.206;2022-07-04T15:59:45;27.10;28.70
13591;DHT22;6866;50.778;7.206;2022-07-04T16:02:10;27.20;28.70
13591;DHT22;6866;50.778;7.206;2022-07-04T16:04:36;27.20;27.70
13591;DHT22;6866;50.778;7.206;2022-07-04T16:07:01;27.40;27.60
13591;DHT22;6866;50.778;7.206;2022-07-04T16:09:27;27.30;27.80
13591;DHT22;6866;50.778;7.206;2022-07-04T16:11:52;27.10;28.10
13591;DHT22;6866;50.778;7.206;2022-07-04T16:14:19;27.10;29.50